Time;durP1;ratioP1;P1;durP2;ratioP2;P2;SDS_P1;SDS_P2;PMS_P1;PMS_P2;Temp;Humidity;BMP_temperature;BMP_pressure;BME280_temperature;BME280_humidity;BME280_pressure;Samples;Min_cycle;Max_cycle;Signal;HPM_P1;HPM_P2
2022/04/29 00:02:21;;;;;;;4.63;2.92;;;3.70;99.90;;;;;;5032761;28;20037;-55
2022/04/29 00:05:46;;;;;;;3.53;2.60;;;3.60;99.90;;;;;;5036845;28;20045;-57
2022/04/29 00:09:10;;;;;;;7.30;3.63;;;3.60;99.90;;;;;;5031038;28;20116;-55
2022/04/29 00:11:56;;;;;;;9.00;3.80;;;3.50;99.90;;;;;;5041542;28;20032;-55
2022/04/29 00:14:23;;;;;;;6.60;3.20;;;3.50;99.90;;;;;;5049240;28;20500;-51
2022/04/29 00:16:49;;;;;;;6.25;3.13;;;3.40;99.90;;;;;;5031189;28;20059;-55
2022/04/29 00:19:16;;;;;;;7.10;4.05;;;3.40;99.90;;;;;;5048482;28;20029;-56
2022/04/29 00:21:42;;;;;;;6.88;3.28;;;3.30;99.90;;;;;;5031334;28;20033;-52
2022/04/29 00:24:12;;;;;;;2.83;2.30;;;3.30;99.90;;;;;;5048698;28;20053;-56
2022/04/29 00:26:39;;;;;;;4.25;2.90;;;3.30;99.90;;;;;;5050762;28;20027;-54
2022/04/29 00:29:05;;;;;;;3.90;2.65;;;3.30;99.90;;;;;;5047423;28;20029;-55
2022/04/29 00:31:31;;;;;;;4.10;2.65;;;3.30;99.90;;;;;;5050667;28;20029;-54
2022/04/29 00:33:57;;;;;;;6.32;3.50;;;3.40;99.90;;;;;;5046202;28;20102;-56
2022/04/29 00:36:23;;;;;;;5.57;3.38;;;3.40;99.90;;;;;;5050637;28;20518;-56
2022/04/29 00:38:49;;;;;;;4.80;3.28;;;3.40;99.90;;;;;;5045203;28;20033;-57
2022/04/29 00:41:19;;;;;;;6.47;3.63;;;3.40;99.90;;;;;;5050367;28;20087;-55
2022/04/29 00:43:45;;;;;;;4.43;2.92;;;3.50;99.90;;;;;;5044314;28;20029;-56
2022/04/29 00:46:11;;;;;;;5.97;3.40;;;3.60;99.90;;;;;;5050282;28;20025;-55
2022/04/29 00:48:37;;;;;;;5.30;2.97;;;3.60;99.90;;;;;;5043395;28;20041;-55
2022/04/29 00:51:03;;;;;;;5.15;3.00;;;3.70;99.90;;;;;;5050255;28;20564;-56
2022/04/29 00:53:29;;;;;;;5.00;2.97;;;3.70;99.90;;;;;;5042094;28;20520;-53
2022/04/29 00:55:56;;;;;;;3.78;2.88;;;3.70;99.90;;;;;;5050213;28;20475;-54
2022/04/29 00:58:29;;;;;;;4.78;3.30;;;3.70;99.90;;;;;;5040942;28;20515;-56
2022/04/29 01:01:34;;;;;;;4.95;3.88;;;3.70;99.90;;;;;;5010188;28;20030;-56
2022/04/29 01:04:59;;;;;;;5.95;3.42;;;3.70;99.90;;;;;;5044310;28;20033;-53
2022/04/29 01:08:23;;;;;;;5.78;3.65;;;3.70;99.90;;;;;;5036614;28;20040;-52
2022/04/29 01:11:49;;;;;;;4.88;3.38;;;3.70;99.90;;;;;;5039520;28;20065;-56
2022/04/29 01:15:14;;;;;;;6.20;3.25;;;3.60;99.90;;;;;;5046216;28;20440;-57
2022/04/29 01:18:41;;;;;;;8.93;4.30;;;3.60;99.90;;;;;;5026144;28;20061;-56
2022/04/29 01:22:05;;;;;;;5.90;3.47;;;3.70;99.90;;;;;;5045778;28;20546;-57
2022/04/29 01:25:30;;;;;;;6.85;3.78;;;3.60;99.90;;;;;;5047429;28;20112;-55
2022/04/29 01:28:55;;;;;;;5.40;3.33;;;3.50;99.90;;;;;;5029722;28;20029;-55
2022/04/29 01:32:21;;;;;;;6.40;3.33;;;3.40;99.90;;;;;;5046027;28;20121;-55
2022/04/29 01:35:46;;;;;;;4.32;2.85;;;3.40;99.90;;;;;;5044031;28;20044;-55
2022/04/29 01:39:12;;;;;;;6.85;4.10;;;3.30;99.90;;;;;;5029524;28;20037;-56
2022/04/29 01:42:37;;;;;;;4.05;2.97;;;3.30;99.90;;;;;;5038121;28;20037;-54
2022/04/29 01:46:02;;;;;;;7.90;3.70;;;3.20;99.90;;;;;;5026269;28;20114;-54
2022/04/29 01:49:28;;;;;;;5.63;3.03;;;3.20;99.90;;;;;;5037859;28;20492;-57
2022/04/29 01:52:53;;;;;;;5.55;3.47;;;3.10;99.90;;;;;;5049121;28;20037;-54
2022/04/29 01:56:18;;;;;;;5.10;3.50;;;3.00;99.90;;;;;;5036161;28;20041;-54
2022/04/29 01:59:44;;;;;;;7.10;3.65;;;2.90;99.90;;;;;;5042613;28;20029;-51
2022/04/29 02:03:09;;;;;;;5.93;3.95;;;2.80;99.90;;;;;;5037727;28;20035;-55
2022/04/29 02:06:37;;;;;;;5.30;3.40;;;2.70;99.90;;;;;;5035971;28;20055;-56
2022/04/29 02:10:00;;;;;;;6.25;3.78;;;2.70;99.90;;;;;;5038683;28;20127;-55
2022/04/29 02:12:46;;;;;;;8.77;3.13;;;2.60;99.90;;;;;;5033855;28;20048;-56
2022/04/29 02:15:12;;;;;;;3.78;2.95;;;2.50;99.90;;;;;;5040060;28;20417;-55
2022/04/29 02:17:37;;;;;;;7.57;4.47;;;2.50;99.90;;;;;;5045986;28;20025;-57
2022/04/29 02:20:04;;;;;;;5.47;3.75;;;2.50;99.90;;;;;;5048724;28;20021;-52
2022/04/29 02:22:29;;;;;;;6.22;2.90;;;2.50;99.90;;;;;;5032314;28;20032;-57
2022/04/29 02:24:55;;;;;;;4.93;3.63;;;2.50;99.90;;;;;;5048682;28;20029;-54
2022/04/29 02:27:20;;;;;;;8.07;3.95;;;2.40;99.90;;;;;;5030947;28;20036;-55
2022/04/29 02:29:46;;;;;;;6.55;3.67;;;2.30;99.90;;;;;;5048632;28;20029;-54
2022/04/29 02:32:11;;;;;;;5.88;3.88;;;2.30;99.90;;;;;;5029519;28;20674;-53
2022/04/29 02:34:38;;;;;;;5.18;3.58;;;2.30;99.90;;;;;;5048629;28;20029;-52
2022/04/29 02:37:03;;;;;;;6.07;3.55;;;2.20;99.90;;;;;;5028246;28;20026;-56
2022/04/29 02:39:29;;;;;;;5.38;3.60;;;2.20;99.90;;;;;;5048375;28;20181;-56
2022/04/29 02:41:55;;;;;;;8.88;4.18;;;2.10;99.90;;;;;;5027208;28;20033;-51
2022/04/29 02:44:20;;;;;;;6.55;3.85;;;2.10;99.90;;;;;;5048338;28;20106;-54
2022/04/29 02:49:31;;;;;;;7.85;4.40;;;2.00;99.90;;;;;;5048581;28;20047;-53
2022/04/29 02:51:56;;;;;;;5.28;3.75;;;1.90;99.90;;;;;;5046077;28;20493;-53
2022/04/29 02:54:22;;;;;;;7.43;4.03;;;1.80;99.90;;;;;;5048145;28;20037;-55
2022/04/29 02:56:50;;;;;;;5.68;3.85;;;1.80;99.90;;;;;;5028582;28;20025;-56
2022/04/29 02:59:17;;;;;;;7.63;3.72;;;1.80;99.90;;;;;;5043875;28;20037;-55
2022/04/29 03:02:23;;;;;;;8.27;4.07;;;1.70;99.90;;;;;;5025269;28;20025;-55
2022/04/29 03:05:48;;;;;;;4.90;3.13;;;1.70;99.90;;;;;;5047720;28;20037;-54
2022/04/29 03:09:13;;;;;;;7.05;3.88;;;1.60;99.90;;;;;;5042372;28;20048;-57
2022/04/29 03:11:59;;;;;;;6.03;3.60;;;1.60;99.90;;;;;;5034360;28;20051;-58
2022/04/29 03:14:24;;;;;;;5.38;3.30;;;1.60;99.90;;;;;;5045612;28;20508;-55
2022/04/29 03:16:50;;;;;;;5.68;3.40;;;1.50;99.90;;;;;;5027988;28;20029;-56
2022/04/29 03:19:17;;;;;;;6.22;3.72;;;1.50;99.90;;;;;;5044406;28;20033;-53
2022/04/29 03:21:42;;;;;;;6.38;3.72;;;1.50;99.90;;;;;;5028278;28;20116;-57
2022/04/29 03:24:08;;;;;;;5.85;3.80;;;1.50;99.90;;;;;;5045416;28;20124;-57
2022/04/29 03:26:35;;;;;;;8.90;4.00;;;1.40;99.90;;;;;;5047692;28;20033;-56
2022/04/29 03:29:01;;;;;;;4.88;2.80;;;1.40;99.90;;;;;;5043913;28;20566;-57
2022/04/29 03:31:26;;;;;;;5.82;3.33;;;1.40;99.90;;;;;;5047443;28;20037;-68
2022/04/29 03:34:32;;;;;;;6.30;3.67;;;1.30;99.90;;;;;;5042774;28;20510;-68
2022/04/29 03:37:57;;;;;;;6.07;3.03;;;1.30;99.90;;;;;;5034259;28;20029;-68
2022/04/29 03:41:22;;;;;;;4.78;3.15;;;1.40;99.90;;;;;;5027640;28;20064;-69
2022/04/29 03:44:48;;;;;;;6.65;3.83;;;1.40;99.90;;;;;;5042973;28;20029;-67
2022/04/29 03:48:13;;;;;;;7.53;4.20;;;1.40;99.90;;;;;;5041905;28;20494;-68
2022/04/29 03:51:38;;;;;;;7.18;3.90;;;1.40;99.90;;;;;;5036247;28;20036;-68
2022/04/29 03:55:04;;;;;;;8.07;4.07;;;1.50;99.90;;;;;;5047070;28;20549;-68
2022/04/29 03:58:29;;;;;;;6.97;3.88;;;1.50;99.90;;;;;;5034253;28;20036;-68
2022/04/29 04:01:55;;;;;;;7.38;3.95;;;1.50;99.90;;;;;;5040128;28;20087;-68
2022/04/29 04:05:20;;;;;;;11.88;4.72;;;1.60;99.90;;;;;;5042729;28;20041;-68
2022/04/29 04:08:46;;;;;;;9.65;4.20;;;1.60;99.90;;;;;;5034422;28;20485;-68
2022/04/29 04:12:11;;;;;;;5.18;3.38;;;1.80;99.90;;;;;;5007962;28;20056;-69
2022/04/29 04:15:36;;;;;;;6.85;3.83;;;2.00;99.90;;;;;;5040861;28;20050;-69
2022/04/29 04:19:01;;;;;;;5.70;3.55;;;2.20;99.90;;;;;;5020809;28;20044;-69
2022/04/29 04:22:27;;;;;;;5.72;3.95;;;2.40;99.90;;;;;;5029362;28;20041;-70
2022/04/29 04:25:56;;;;;;;4.82;3.03;;;2.60;99.90;;;;;;5047242;28;20043;-70
2022/04/29 04:29:17;;;;;;;5.25;3.08;;;3.40;99.90;;;;;;5024843;28;20527;-71
2022/04/29 04:32:43;;;;;;;4.10;3.20;;;5.60;99.90;;;;;;5045891;28;20086;-71
2022/04/29 04:36:11;;;;;;;3.72;2.78;;;8.60;99.90;;;;;;5010604;28;20057;-69
2022/04/29 04:39:36;;;;;;;3.97;2.72;;;10.80;77.20;;;;;;5050622;28;20579;-70
2022/04/29 04:43:02;;;;;;;4.93;2.97;;;12.60;54.20;;;;;;5045247;28;20048;-70
2022/04/29 04:46:27;;;;;;;3.92;2.80;;;14.50;44.70;;;;;;5044799;28;20047;-70
2022/04/29 04:49:52;;;;;;;4.45;2.65;;;16.00;35.20;;;;;;5030473;28;20040;-69
2022/04/29 04:53:18;;;;;;;8.30;4.05;;;17.00;31.80;;;;;;5044976;28;20580;-70
2022/04/29 04:56:43;;;;;;;4.40;3.20;;;18.50;30.00;;;;;;5030409;28;20040;-70
2022/04/29 04:59:29;;;;;;;5.20;3.88;;;19.30;26.70;;;;;;5042050;28;20041;-70
2022/04/29 05:02:34;;;;;;;8.45;4.68;;;20.20;26.30;;;;;;5047943;28;20424;-70
2022/04/29 05:05:59;;;;;;;7.03;5.45;;;20.40;17.40;;;;;;5048807;28;20415;-70
2022/04/29 05:09:25;;;;;;;7.90;4.70;;;21.40;23.40;;;;;;5037109;28;20055;-70
2022/04/29 05:12:50;;;;;;;8.63;4.63;;;20.10;18.70;;;;;;5037932;28;20498;-69
2022/04/29 05:16:15;;;;;;;4.78;3.55;;;21.70;22.50;;;;;;5049424;28;20048;-67
2022/04/29 05:19:41;;;;;;;5.70;3.65;;;21.80;18.50;;;;;;5026481;28;20060;-68
2022/04/29 05:23:09;;;;;;;6.18;4.20;;;21.20;16.50;;;;;;5010165;28;20065;-68
2022/04/29 05:25:55;;;;;;;8.35;3.80;;;20.40;21.20;;;;;;5009773;28;20065;-68
2022/04/29 05:28:21;;;;;;;6.65;4.00;;;22.30;20.40;;;;;;5045894;28;20451;-68
2022/04/29 05:30:47;;;;;;;7.13;3.78;;;23.00;18.00;;;;;;5049504;28;20079;-69
2022/04/29 05:33:13;;;;;;;5.53;3.40;;;23.60;17.10;;;;;;5029599;28;20045;-68
2022/04/29 05:35:39;;;;;;;8.25;4.85;;;23.00;18.00;;;;;;5049366;28;20369;-68
2022/04/29 05:38:05;;;;;;;8.90;4.80;;;24.80;16.80;;;;;;5029330;28;20033;-68
2022/04/29 05:43:15;;;;;;;8.13;4.95;;;25.20;14.00;;;;;;5013511;28;20364;-68
2022/04/29 05:45:41;;;;;;;7.78;4.35;;;24.90;14.30;;;;;;5047793;28;20021;-68
2022/04/29 05:48:07;;;;;;;7.30;4.18;;;23.60;15.40;;;;;;5029388;28;20029;-68
2022/04/29 05:50:33;;;;;;;6.95;4.60;;;22.60;16.60;;;;;;5049066;28;20472;-68
2022/04/29 05:52:58;;;;;;;7.63;4.03;;;22.00;17.20;;;;;;5028178;28;20037;-68
2022/04/29 05:55:24;;;;;;;11.27;4.05;;;20.50;18.60;;;;;;5049023;28;20442;-68
2022/04/29 05:57:49;;;;;;;6.90;4.47;;;19.30;20.90;;;;;;5029332;28;20124;-68
2022/04/29 06:00:15;;;;;;;7.50;3.67;;;18.50;22.00;;;;;;5031534;28;20025;-68
2022/04/29 06:03:21;;;;;;;9.73;3.92;;;18.10;22.60;;;;;;5045958;28;20049;-68
2022/04/29 06:06:46;;;;;;;4.85;2.60;;;20.80;18.20;;;;;;5045389;28;20033;-68
2022/04/29 06:10:12;;;;;;;6.75;3.05;;;24.70;11.00;;;;;;5048902;28;20076;-68
2022/04/29 06:13:38;;;;;;;6.75;2.25;;;28.00;5.00;;;;;;5035906;28;20434;-68
2022/04/29 06:17:02;;;;;;;4.40;2.17;;;30.00;6.60;;;;;;5037167;28;20049;-68
2022/04/29 06:20:29;;;;;;;3.63;1.75;;;30.10;1.10;;;;;;5048881;28;20515;-68
2022/04/29 06:23:53;;;;;;;4.63;1.80;;;30.10;3.10;;;;;;5035178;28;20041;-68
2022/04/29 06:27:19;;;;;;;3.00;1.70;;;29.10;2.60;;;;;;5037587;28;20043;-68
2022/04/29 06:30:44;;;;;;;3.80;2.00;;;28.60;1.00;;;;;;5033994;28;20404;-68
2022/04/29 06:34:09;;;;;;;4.25;2.00;;;27.70;1.00;;;;;;5038667;28;20477;-68
2022/04/29 06:37:35;;;;;;;3.92;1.73;;;26.80;1.00;;;;;;5040801;28;20033;-68
2022/04/29 06:41:00;;;;;;;4.45;1.73;;;26.80;1.00;;;;;;5031131;28;20060;-69
2022/04/29 06:44:25;;;;;;;4.15;1.88;;;26.40;3.70;;;;;;5042683;28;20102;-69
2022/04/29 06:47:51;;;;;;;5.93;2.17;;;27.00;1.00;;;;;;5042541;28;20123;-68
2022/04/29 06:51:16;;;;;;;5.55;1.85;;;28.30;1.00;;;;;;5008675;28;20457;-69
2022/04/29 06:54:42;;;;;;;6.30;2.35;;;29.40;1.00;;;;;;5044317;28;20051;-69
2022/04/29 06:58:07;;;;;;;4.75;1.90;;;29.40;1.00;;;;;;5035077;28;20407;-69
2022/04/29 07:01:32;;;;;;;5.22;1.80;;;29.50;1.00;;;;;;5032628;28;20094;-69
2022/04/29 07:04:59;;;;;;;2.65;1.50;;;31.40;1.00;;;;;;5048034;28;20678;-69
2022/04/29 07:08:23;;;;;;;4.78;1.90;;;32.50;1.00;;;;;;5034204;28;20032;-69
2022/04/29 07:11:48;;;;;;;6.43;1.95;;;31.20;1.00;;;;;;5037458;28;20064;-64
2022/04/29 07:15:14;;;;;;;4.55;1.90;;;29.40;1.00;;;;;;5044306;28;20456;-62
2022/04/29 07:18:39;;;;;;;2.53;1.65;;;28.70;1.00;;;;;;5026918;28;20125;-63
2022/04/29 07:22:04;;;;;;;2.67;1.30;;;30.30;1.00;;;;;;5036708;28;20033;-62
2022/04/29 07:25:30;;;;;;;3.45;1.50;;;31.70;1.00;;;;;;5044279;28;20071;-64
2022/04/29 07:28:55;;;;;;;3.47;1.25;;;32.00;1.00;;;;;;5034706;28;20037;-63
2022/04/29 07:32:21;;;;;;;3.78;1.33;;;33.10;1.00;;;;;;5042108;28;20511;-64
2022/04/29 07:42:35;;;;;;;2.22;1.17;;;34.40;1.00;;;;;;5008977;28;20045;-64
2022/04/29 07:46:01;;;;;;;3.72;1.20;;;34.70;1.00;;;;;;5032786;28;20400;-64
2022/04/29 07:49:25;;;;;;;2.88;1.15;;;34.10;1.00;;;;;;5040012;28;20044;-64
2022/04/29 07:52:50;;;;;;;2.47;1.00;;;34.40;1.00;;;;;;5034575;28;20548;-63
2022/04/29 07:56:16;;;;;;;2.67;1.00;;;34.80;1.00;;;;;;5028169;28;20060;-64
2022/04/29 07:59:41;;;;;;;2.92;0.93;;;35.40;1.00;;;;;;5047358;28;20518;-64
2022/04/29 08:03:06;;;;;;;4.25;1.23;;;36.10;1.00;;;;;;5038261;28;20147;-64
2022/04/29 08:06:32;;;;;;;2.78;0.95;;;36.20;1.00;;;;;;5031237;28;20052;-64
2022/04/29 08:09:57;;;;;;;1.90;0.80;;;35.90;1.00;;;;;;5040268;28;20453;-64
2022/04/29 08:13:24;;;;;;;2.58;1.10;;;36.00;1.00;;;;;;5038282;28;20048;-64
2022/04/29 08:16:49;;;;;;;2.15;0.85;;;35.90;1.00;;;;;;5042808;28;20059;-64
2022/04/29 08:20:13;;;;;;;2.20;1.00;;;36.30;1.00;;;;;;5050896;28;20036;-64
2022/04/29 08:23:38;;;;;;;2.10;1.10;;;35.60;1.00;;;;;;5029758;28;20243;-64
2022/04/29 08:27:04;;;;;;;2.10;1.23;;;34.60;1.00;;;;;;5011117;28;20124;-65
2022/04/29 08:30:30;;;;;;;2.78;1.13;;;34.10;1.00;;;;;;5039772;28;20037;-64
2022/04/29 08:33:55;;;;;;;5.20;1.40;;;33.00;1.00;;;;;;5038954;28;20063;-63
2022/04/29 08:37:20;;;;;;;1.77;0.90;;;31.40;1.00;;;;;;5046751;28;20496;-64
2022/04/29 08:40:45;;;;;;;2.45;1.20;;;32.10;1.00;;;;;;5032415;28;20036;-65
2022/04/29 08:44:11;;;;;;;2.60;1.30;;;33.00;1.00;;;;;;5038109;28;20467;-64
2022/04/29 08:47:36;;;;;;;3.35;0.90;;;33.40;1.00;;;;;;5042498;28;20029;-64
2022/04/29 08:51:01;;;;;;;1.52;1.05;;;34.40;1.00;;;;;;5032090;28;20045;-64
2022/04/29 09:01:21;;;;;;;4.43;1.05;;;34.10;1.00;;;;;;5034246;28;20299;-64
2022/04/29 09:04:46;;;;;;;6.28;1.33;;;33.30;1.00;;;;;;5047368;28;20049;-64
2022/04/29 09:08:33;;;;;;;4.05;1.23;;;32.90;1.00;;;;;;5035924;28;20087;-64
2022/04/29 09:12:00;;;;;;;3.05;1.20;;;34.20;1.00;;;;;;4977331;28;20042;-64
2022/04/29 09:15:28;;;;;;;3.05;0.82;;;34.50;1.00;;;;;;4969710;28;20072;-64
2022/04/29 09:18:54;;;;;;;4.15;1.13;;;34.00;1.00;;;;;;5040463;28;20068;-64
2022/04/29 09:22:30;;;;;;;1.83;1.00;;;33.40;1.00;;;;;;5046267;28;20044;-64
2022/04/29 09:25:47;;;;;;;1.67;0.95;;;34.40;1.00;;;;;;5030276;28;20045;-64
2022/04/29 09:29:13;;;;;;;3.72;0.80;;;34.40;1.00;;;;;;5046424;28;20397;-64
2022/04/29 09:32:00;;;;;;;1.48;0.88;;;33.40;1.00;;;;;;5041748;28;20036;-64
2022/04/29 09:34:53;;;;;;;2.53;0.98;;;32.70;1.00;;;;;;5049688;28;20032;-64
2022/04/29 09:41:25;;;;;;;3.40;1.10;;;32.70;1.00;;;;;;5010089;28;20404;-65
2022/04/29 09:44:50;;;;;;;3.25;1.15;;;32.70;1.00;;;;;;5049165;28;20045;-65
2022/04/29 09:48:16;;;;;;;4.80;1.67;;;32.70;1.00;;;;;;5041508;28;20037;-65
2022/04/29 09:51:59;;;;;;;3.20;1.10;;;32.00;1.00;;;;;;5041632;28;20115;-66
2022/04/29 09:55:28;;;;;;;2.17;0.93;;;31.60;1.00;;;;;;5043855;28;20120;-65
2022/04/29 09:58:53;;;;;;;3.85;1.10;;;32.10;1.00;;;;;;5044004;28;20037;-64
2022/04/29 10:01:59;;;;;;;3.55;0.82;;;32.30;1.00;;;;;;5018050;28;20035;-65
2022/04/29 10:05:24;;;;;;;2.28;1.10;;;31.30;1.00;;;;;;5037705;28;20056;-65
2022/04/29 10:08:50;;;;;;;3.90;1.40;;;29.00;1.00;;;;;;5048964;28;20102;-64
2022/04/29 10:12:15;;;;;;;2.55;1.10;;;27.10;1.00;;;;;;5034030;28;20049;-65
2022/04/29 10:15:40;;;;;;;2.58;1.20;;;25.40;1.00;;;;;;5035807;28;20124;-64
2022/04/29 10:22:29;;;;;;;3.28;1.40;;;23.40;1.00;;;;;;5041854;28;20466;-63
2022/04/29 10:25:55;;;;;;;2.38;1.00;;;22.80;1.00;;;;;;5045237;28;20037;-63
2022/04/29 10:29:20;;;;;;;4.55;1.10;;;22.50;1.00;;;;;;5035920;28;20477;-63
2022/04/29 10:32:45;;;;;;;3.35;1.08;;;22.10;1.00;;;;;;5035075;28;20029;-63
2022/04/29 10:35:40;;;;;;;2.60;1.10;;;21.90;1.00;;;;;;5030169;28;20466;-63
2022/04/29 10:39:06;;;;;;;3.00;1.10;;;21.60;1.00;;;;;;5038683;28;20399;-63
2022/04/29 10:42:37;;;;;;;2.80;0.98;;;21.30;1.00;;;;;;5042440;28;20040;-63
2022/04/29 10:46:01;;;;;;;2.40;0.85;;;21.20;1.00;;;;;;5037317;28;20045;-64
2022/04/29 10:49:38;;;;;;;4.95;1.35;;;20.90;1.00;;;;;;5036656;28;20175;-64
2022/04/29 10:53:04;;;;;;;4.40;1.15;;;20.80;1.00;;;;;;5043173;28;20029;-64
2022/04/29 10:56:32;;;;;;;1.98;0.90;;;20.90;1.00;;;;;;5028591;28;20046;-64
2022/04/29 10:59:50;;;;;;;2.42;1.00;;;21.10;1.00;;;;;;5043482;28;20029;-63
2022/04/29 11:03:15;;;;;;;1.90;0.85;;;21.10;1.00;;;;;;5040224;28;20450;-64
2022/04/29 11:06:36;;;;;;;4.10;1.02;;;20.70;1.00;;;;;;5008541;28;20047;-63
2022/04/29 11:10:07;;;;;;;3.95;1.00;;;20.70;1.00;;;;;;5045693;28;20041;-70
2022/04/29 11:13:36;;;;;;;7.35;1.30;;;20.60;1.00;;;;;;5039748;28;20028;-71
2022/04/29 11:16:16;;;;;;;2.83;1.05;;;20.50;1.00;;;;;;5007548;28;20050;-71
2022/04/29 11:18:43;;;;;;;2.97;1.10;;;20.40;1.00;;;;;;5045559;28;20048;-70
2022/04/29 11:26:48;;;;;;;3.42;0.90;;;20.10;1.00;;;;;;5008571;28;20064;-71
2022/04/29 11:29:14;;;;;;;5.40;1.10;;;19.90;1.40;;;;;;5045457;28;20029;-71
2022/04/29 11:31:41;;;;;;;3.92;1.10;;;19.90;1.00;;;;;;5047018;28;20032;-71
2022/04/29 11:34:49;;;;;;;2.45;1.10;;;19.80;1.30;;;;;;5044935;28;20037;-72
2022/04/29 11:37:54;;;;;;;;;;;19.80;1.50;;;;;;5035547;28;20029;-71
2022/04/29 11:41:20;;;;;;;2.03;1.00;;;19.70;2.00;;;;;;5027879;28;19945;-71
2022/04/29 11:44:34;;;;;;;2.40;1.10;;;19.70;1.70;;;;;;5042293;28;20048;-70
2022/04/29 11:48:03;;;;;;;4.65;1.15;;;19.60;2.60;;;;;;5034319;28;20550;-71
2022/04/29 11:51:28;;;;;;;4.38;1.20;;;19.60;2.90;;;;;;5045219;28;20036;-71
2022/04/29 11:54:53;;;;;;;4.63;1.00;;;19.60;3.30;;;;;;5037532;28;20033;-70
2022/04/29 11:58:22;;;;;;;6.53;1.05;;;19.60;2.60;;;;;;5036108;28;20047;-70
2022/04/29 12:01:47;;;;;;;2.58;1.08;;;19.70;2.70;;;;;;5043803;28;20033;-71
2022/04/29 12:04:55;;;;;;;1.35;0.80;;;19.70;2.30;;;;;;5034038;28;20048;-71
2022/04/29 12:08:21;;;;;;;3.30;0.75;;;19.60;2.40;;;;;;5008007;28;20068;-72
2022/04/29 12:11:49;;;;;;;3.53;0.82;;;19.50;2.80;;;;;;5030383;28;20029;-71
2022/04/29 12:14:36;;;;;;;2.47;1.40;;;19.50;2.50;;;;;;5030687;28;20121;-71
2022/04/29 12:17:01;;;;;;;2.20;1.13;;;19.30;2.50;;;;;;5008583;28;20073;-71
2022/04/29 12:19:27;;;;;;;1.77;0.73;;;19.20;2.60;;;;;;5046459;28;20429;-71
2022/04/29 12:21:55;;;;;;;3.85;1.00;;;19.10;2.60;;;;;;5026308;28;20558;-68
2022/04/29 12:25:00;;;;;;;2.90;1.42;;;19.10;2.80;;;;;;5006514;28;20042;-72
2022/04/29 12:28:11;;;;;;;2.38;0.80;;;19.00;3.80;;;;;;5033126;28;20388;-70
2022/04/29 12:35:07;;;;;;;0.95;0.65;;;18.90;3.40;;;;;;5035000;28;20099;-69
2022/04/29 12:38:35;;;;;;;5.65;1.00;;;18.90;2.80;;;;;;5032958;28;20064;-71
2022/04/29 12:41:41;;;;;;;;;;;18.80;3.20;;;;;;5035476;28;20044;-71
2022/04/29 12:45:04;;;;;;;3.13;0.80;;;18.80;3.70;;;;;;5049373;28;19923;-72
2022/04/29 12:47:59;;;;;;;1.75;0.90;;;18.80;3.10;;;;;;5039487;28;20033;-71
2022/04/29 12:51:08;;;;;;;1.05;0.50;;;18.90;3.00;;;;;;5010486;28;20033;-71
2022/04/29 12:54:33;;;;;;;1.00;0.63;;;18.80;2.70;;;;;;5038371;28;20036;-69
2022/04/29 12:57:58;;;;;;;3.58;1.02;;;18.80;2.40;;;;;;5036971;28;20041;-71
2022/04/29 13:01:24;;;;;;;4.13;1.08;;;18.90;2.70;;;;;;5040789;28;20037;-72
2022/04/29 13:04:49;;;;;;;2.47;0.70;;;18.90;2.60;;;;;;5038410;28;20136;-67
2022/04/29 13:08:14;;;;;;;4.18;0.93;;;18.70;2.90;;;;;;5036702;28;20037;-74
2022/04/29 13:11:40;;;;;;;2.70;0.80;;;18.60;2.90;;;;;;5038416;28;20041;-71
2022/04/29 13:15:05;;;;;;;3.83;1.02;;;18.50;3.20;;;;;;5033787;28;20045;-72
2022/04/29 13:18:31;;;;;;;1.75;0.70;;;18.60;3.20;;;;;;5043951;28;20041;-72
2022/04/29 13:21:56;;;;;;;3.47;0.77;;;18.70;3.30;;;;;;5036154;28;20442;-70
2022/04/29 13:25:21;;;;;;;2.83;0.88;;;18.70;2.70;;;;;;5030489;28;20055;-70
2022/04/29 13:28:47;;;;;;;2.53;0.88;;;18.80;2.80;;;;;;5041318;28;20029;-70
2022/04/29 13:32:12;;;;;;;2.78;0.90;;;18.80;2.90;;;;;;5031607;28;20453;-70
2022/04/29 13:35:38;;;;;;;1.58;0.73;;;18.80;2.70;;;;;;5009466;28;20052;-69
2022/04/29 13:39:03;;;;;;;3.67;1.50;;;18.70;2.80;;;;;;5045872;28;20440;-70
2022/04/29 13:42:29;;;;;;;3.20;1.45;;;18.60;3.20;;;;;;5041338;28;20072;-70
2022/04/29 13:45:54;;;;;;;2.90;0.98;;;18.50;3.20;;;;;;5028646;28;20073;-71
2022/04/29 13:49:19;;;;;;;3.38;0.88;;;18.50;3.60;;;;;;5042821;28;20404;-70
2022/04/29 13:56:09;;;;;;;2.15;0.80;;;18.40;3.10;;;;;;5008464;28;20083;-70
2022/04/29 13:59:34;;;;;;;3.40;0.70;;;18.40;3.20;;;;;;5045177;28;20041;-70
2022/04/29 14:02:59;;;;;;;2.42;0.68;;;18.50;2.70;;;;;;5040654;28;20412;-71
2022/04/29 14:06:25;;;;;;;2.28;0.80;;;18.60;3.10;;;;;;5008006;28;20056;-71
2022/04/29 14:09:50;;;;;;;1.58;0.70;;;18.70;3.30;;;;;;5036956;28;20102;-70
2022/04/29 14:13:18;;;;;;;2.05;0.80;;;18.70;3.20;;;;;;5033465;28;20029;-72
2022/04/29 14:16:41;;;;;;;2.45;0.70;;;18.60;3.00;;;;;;5007840;28;20533;-71
2022/04/29 14:20:06;;;;;;;3.22;0.70;;;18.50;3.60;;;;;;5036895;28;20041;-71
2022/04/29 14:23:31;;;;;;;2.03;0.63;;;18.40;3.50;;;;;;5042461;28;20103;-71
2022/04/29 14:26:57;;;;;;;6.00;0.98;;;18.40;3.30;;;;;;5036424;28;20036;-71
2022/04/29 14:30:22;;;;;;;2.75;1.00;;;18.20;3.00;;;;;;5047579;28;20029;-71
2022/04/29 14:33:48;;;;;;;2.15;0.88;;;18.30;2.90;;;;;;5034792;28;20554;-71
2022/04/29 14:37:13;;;;;;;1.48;0.82;;;18.20;3.00;;;;;;5041795;28;20040;-71
2022/04/29 14:40:38;;;;;;;3.58;0.57;;;18.20;2.90;;;;;;5043794;28;20044;-71
2022/04/29 14:44:05;;;;;;;0.80;0.65;;;18.20;2.40;;;;;;5030720;28;20055;-70
2022/04/29 14:47:29;;;;;;;3.50;1.00;;;18.20;3.10;;;;;;5035926;28;20095;-71
2022/04/29 14:50:54;;;;;;;2.35;1.00;;;18.40;3.20;;;;;;5032333;28;20029;-71
2022/04/29 14:54:20;;;;;;;0.77;0.52;;;18.40;3.00;;;;;;5035049;28;20056;-71
2022/04/29 14:57:45;;;;;;;1.98;0.93;;;18.40;2.60;;;;;;5034096;28;20392;-71
2022/04/29 15:01:11;;;;;;;3.63;0.60;;;18.40;2.90;;;;;;5035393;28;20044;-70
2022/04/29 15:04:36;;;;;;;1.73;0.85;;;18.50;2.30;;;;;;5026115;28;20050;-71
2022/04/29 15:08:01;;;;;;;4.40;0.80;;;18.40;2.20;;;;;;5019720;28;20401;-70
2022/04/29 15:18:19;;;;;;;2.25;0.70;;;17.90;1.70;;;;;;5023592;28;20044;-61
2022/04/29 15:21:40;;;;;;;1.65;0.60;;;17.90;2.40;;;;;;5033690;28;20094;-62
2022/04/29 15:25:06;;;;;;;9.55;1.05;;;17.90;2.20;;;;;;5046640;28;20051;-62
2022/04/29 15:28:31;;;;;;;2.72;0.60;;;17.90;2.60;;;;;;5033146;28;20535;-62
2022/04/29 15:31:50;;;;;;;4.63;0.88;;;18.10;2.70;;;;;;5035392;28;20025;-61
2022/04/29 15:34:16;;;;;;;3.17;0.50;;;18.10;3.10;;;;;;4989723;28;20038;-69
2022/04/29 15:36:41;;;;;;;3.75;1.00;;;18.10;2.50;;;;;;5043551;28;20027;-68
2022/04/29 15:39:07;;;;;;;2.50;0.82;;;18.10;2.50;;;;;;5042525;28;20022;-68
2022/04/29 15:41:33;;;;;;;2.63;0.60;;;18.10;2.20;;;;;;5030563;28;20195;-68
2022/04/29 15:43:59;;;;;;;1.90;0.75;;;18.10;2.50;;;;;;5046670;28;20493;-69
2022/04/29 15:46:24;;;;;;;2.50;0.85;;;18.00;2.30;;;;;;5027464;28;20033;-68
2022/04/29 15:48:49;;;;;;;4.22;0.70;;;18.00;2.40;;;;;;5044325;28;20037;-68
2022/04/29 15:51:15;;;;;;;1.20;0.70;;;18.00;2.20;;;;;;5027069;28;20021;-68
2022/04/29 15:53:41;;;;;;;3.25;0.63;;;18.00;1.90;;;;;;5043883;28;20108;-68
2022/04/29 15:56:07;;;;;;;4.80;0.70;;;17.90;1.70;;;;;;5031785;28;20025;-68
2022/04/29 15:58:32;;;;;;;1.65;0.60;;;17.90;1.80;;;;;;5042098;28;20041;-68
2022/04/29 16:00:58;;;;;;;3.03;0.75;;;17.80;1.80;;;;;;5041083;28;20035;-68
2022/04/29 16:03:23;;;;;;;2.90;0.50;;;17.80;1.90;;;;;;5040879;28;20045;-69
2022/04/29 16:05:49;;;;;;;1.95;0.57;;;17.80;1.90;;;;;;5046505;28;20078;-68
2022/04/29 16:08:14;;;;;;;2.78;0.70;;;17.80;1.90;;;;;;5039819;28;20108;-68
2022/04/29 16:10:40;;;;;;;2.72;0.70;;;17.80;1.70;;;;;;5046448;28;20072;-68
2022/04/29 16:13:05;;;;;;;1.70;0.52;;;17.70;1.80;;;;;;5038666;28;20463;-68
2022/04/29 16:15:31;;;;;;;2.15;0.70;;;17.70;1.80;;;;;;5034993;28;20809;-69
2022/04/29 16:20:41;;;;;;;1.90;0.75;;;17.60;1.80;;;;;;5010950;28;20540;-69
2022/04/29 16:25:53;;;;;;;2.33;0.80;;;17.60;1.70;;;;;;5010859;28;20559;-68
2022/04/29 16:28:19;;;;;;;3.63;0.77;;;17.50;1.70;;;;;;5047021;28;20492;-68
2022/04/29 16:30:45;;;;;;;1.65;0.90;;;17.50;1.90;;;;;;5050421;28;20040;-68
2022/04/29 16:33:15;;;;;;;1.60;0.77;;;17.50;2.00;;;;;;5042988;28;20025;-68
2022/04/29 16:35:42;;;;;;;1.35;0.65;;;17.50;2.00;;;;;;5050148;28;20032;-69
2022/04/29 16:38:08;;;;;;;1.95;0.85;;;17.50;2.00;;;;;;5042196;28;20502;-69
2022/04/29 16:40:34;;;;;;;3.58;0.88;;;17.60;2.10;;;;;;5049620;28;20112;-68
2022/04/29 16:43:00;;;;;;;0.93;0.50;;;17.60;2.00;;;;;;5041067;28;20124;-68
2022/04/29 16:45:26;;;;;;;1.58;0.80;;;17.50;2.20;;;;;;5049617;28;20581;-68
2022/04/29 16:47:53;;;;;;;2.55;0.85;;;17.50;2.30;;;;;;5039964;28;20033;-68
2022/04/29 16:50:19;;;;;;;1.80;0.60;;;17.50;2.40;;;;;;5049416;28;20025;-67
2022/04/29 16:52:46;;;;;;;1.48;0.70;;;17.40;3.10;;;;;;5038384;28;20029;-69
2022/04/29 16:55:13;;;;;;;4.28;0.77;;;17.30;2.50;;;;;;5029928;28;20034;-67
2022/04/29 17:00:23;;;;;;;7.80;0.95;;;17.20;2.50;;;;;;5026276;28;20094;-68
2022/04/29 17:02:49;;;;;;;5.25;1.35;;;17.10;2.90;;;;;;5039166;28;20025;-69
2022/04/29 17:05:15;;;;;;;2.17;1.77;;;17.10;2.90;;;;;;5048990;28;20086;-69